createdAt,value
2019-05-19T00:01:51.390Z,97810.96
2019-05-19T00:04:18.215Z,97809.72
2019-05-19T00:06:45.454Z,97811.33
2019-05-19T00:09:12.190Z,97804.72
2019-05-19T00:11:38.981Z,97806.92
2019-05-19T00:14:05.697Z,97804.09
2019-05-19T00:16:32.459Z,97798.44
2019-05-19T00:18:59.296Z,97813.21
2019-05-19T00:21:26.123Z,97804.97
2019-05-19T00:23:52.979Z,97802.94
2019-05-19T00:26:19.701Z,97801.02
2019-05-19T00:28:46.542Z,97791.05
2019-05-19T00:31:13.357Z,97800.69
2019-05-19T00:33:40.094Z,97794.87
2019-05-19T00:36:06.849Z,97793.86
2019-05-19T00:38:33.621Z,97788.17
2019-05-19T00:41:00.766Z,97789.04
2019-05-19T00:43:27.701Z,97787.55
2019-05-19T00:45:56.324Z,97782.88
2019-05-19T00:48:23.121Z,97780.94
2019-05-19T00:50:49.925Z,97778.77
2019-05-19T00:53:17.237Z,97775.81
2019-05-19T00:55:44.056Z,97793.30
2019-05-19T00:58:10.800Z,97774.52
2019-05-19T01:00:37.928Z,97783.74
2019-05-19T01:03:05.125Z,97788.92
2019-05-19T01:05:31.846Z,97777.37
2019-05-19T01:07:58.696Z,97777.30
2019-05-19T01:10:25.738Z,97775.02
2019-05-19T01:12:52.483Z,97771.03
2019-05-19T01:15:19.238Z,97778.63
2019-05-19T01:17:46.092Z,97780.67
2019-05-19T01:20:13.922Z,97775.98
2019-05-19T01:22:40.888Z,97771.16
2019-05-19T01:25:08.029Z,97770.91
2019-05-19T01:27:34.870Z,97776.35
2019-05-19T01:30:01.769Z,97778.08
2019-05-19T01:32:28.758Z,97784.34
2019-05-19T01:34:55.484Z,97771.03
2019-05-19T01:37:22.367Z,97770.81
2019-05-19T01:39:49.177Z,97774.42
2019-05-19T01:42:16.184Z,97778.48
2019-05-19T01:44:42.921Z,97776.31
2019-05-19T01:47:10.419Z,97781.56
2019-05-19T01:49:37.142Z,97774.28
2019-05-19T01:52:03.846Z,97778.58
2019-05-19T01:54:30.696Z,97776.86
2019-05-19T01:56:58.509Z,97777.19
2019-05-19T01:59:25.359Z,97773.27
2019-05-19T02:01:52.122Z,97768.67
2019-05-19T02:04:19.024Z,97771.09
2019-05-19T02:06:45.751Z,97772.11
2019-05-19T02:09:12.602Z,97768.52
2019-05-19T02:11:39.445Z,97776.03
2019-05-19T02:14:06.460Z,97773.69
2019-05-19T02:16:33.195Z,97767.59
2019-05-19T02:18:59.933Z,97769.63
2019-05-19T02:21:26.753Z,97775.56
2019-05-19T02:23:53.527Z,97771.97
2019-05-19T02:26:20.268Z,97774.16
2019-05-19T02:28:46.962Z,97762.43
2019-05-19T02:31:13.704Z,97765.41
2019-05-19T02:33:40.442Z,97763.08
2019-05-19T02:36:07.398Z,97760.34
2019-05-19T02:38:37.111Z,97757.98
2019-05-19T02:41:04.251Z,97764.16
2019-05-19T02:43:30.998Z,97761.11
2019-05-19T02:45:58.378Z,97760.49
2019-05-19T02:48:25.126Z,97759.55
2019-05-19T02:50:52.994Z,97758.69
2019-05-19T02:53:20.063Z,97772.19
2019-05-19T02:55:46.973Z,97760.81
2019-05-19T02:58:13.793Z,97764.33
2019-05-19T03:00:42.083Z,97760.09
2019-05-19T03:03:08.885Z,97764.94
2019-05-19T03:05:36.000Z,97766.73
2019-05-19T03:08:02.746Z,97771.51
2019-05-19T03:10:29.857Z,97760.71
2019-05-19T03:12:56.791Z,97773.30
2019-05-19T03:15:23.863Z,97763.69
2019-05-19T03:17:50.617Z,97768.31
2019-05-19T03:20:17.330Z,97768.78
2019-05-19T03:22:44.043Z,97771.11
2019-05-19T03:25:10.914Z,97770.97
2019-05-19T03:27:37.641Z,97768.53
2019-05-19T03:30:23.194Z,97764.80
2019-05-19T03:32:54.096Z,97770.32
2019-05-19T03:35:21.361Z,97766.41
2019-05-19T03:37:48.101Z,97765.27
2019-05-19T03:40:20.760Z,97765.73
2019-05-19T03:42:50.800Z,97768.67
2019-05-19T03:45:17.639Z,97778.47
2019-05-19T03:47:44.430Z,97765.73
2019-05-19T03:50:11.178Z,97770.00
2019-05-19T03:52:37.890Z,97770.47
2019-05-19T03:55:04.703Z,97772.18
2019-05-19T03:57:31.436Z,97770.39
2019-05-19T03:59:58.141Z,97763.88
2019-05-19T04:02:24.903Z,97764.45
2019-05-19T04:04:52.926Z,97755.09
2019-05-19T04:07:19.664Z,97763.34
2019-05-19T04:09:46.731Z,97764.92
2019-05-19T04:12:15.050Z,97768.97
2019-05-19T04:14:41.807Z,97768.43
2019-05-19T04:17:08.542Z,97757.44
2019-05-19T04:19:35.618Z,97756.58
2019-05-19T04:22:02.690Z,97793.50
2019-05-19T04:24:29.422Z,97755.72
2019-05-19T04:26:56.497Z,97759.31
2019-05-19T04:29:23.219Z,97770.10
2019-05-19T04:31:49.956Z,97774.55
2019-05-19T04:34:16.698Z,97790.68
2019-05-19T04:36:43.456Z,97780.92
2019-05-19T04:39:10.197Z,97786.55
2019-05-19T04:41:40.161Z,97794.52
2019-05-19T04:44:08.332Z,97786.37
2019-05-19T04:46:35.076Z,97781.78
2019-05-19T04:49:01.832Z,97784.52
2019-05-19T04:51:28.609Z,97791.69
2019-05-19T04:53:55.379Z,97785.67
2019-05-19T04:56:22.222Z,97794.52
2019-05-19T04:58:49.275Z,97787.62
2019-05-19T05:01:16.493Z,97790.13
2019-05-19T05:03:43.344Z,97783.42
2019-05-19T05:06:10.066Z,97792.92
2019-05-19T05:08:36.840Z,97790.11
2019-05-19T05:11:03.612Z,97785.88
2019-05-19T05:13:30.986Z,97783.31
2019-05-19T05:15:57.714Z,97784.35
2019-05-19T05:18:24.471Z,97782.70
2019-05-19T05:20:51.347Z,97784.83
2019-05-19T05:23:19.238Z,97786.84
2019-05-19T05:25:46.222Z,97790.47
2019-05-19T05:28:15.266Z,97796.46
2019-05-19T05:30:43.186Z,97793.41
2019-05-19T05:33:10.065Z,97795.05
2019-05-19T05:35:36.794Z,97798.11
2019-05-19T05:38:03.550Z,97795.39
2019-05-19T05:40:30.261Z,97795.16
2019-05-19T05:42:57.267Z,97796.66
2019-05-19T05:45:24.051Z,97795.00
2019-05-19T05:47:50.787Z,97802.43
2019-05-19T05:50:17.518Z,97787.31
2019-05-19T05:52:44.615Z,97782.86
2019-05-19T05:55:11.338Z,97783.91
2019-05-19T05:57:38.165Z,97781.86
2019-05-19T06:00:05.576Z,97788.41
2019-05-19T06:02:32.422Z,97780.53
2019-05-19T06:04:59.507Z,97780.63
2019-05-19T06:07:26.246Z,97781.95
2019-05-19T06:09:52.984Z,97777.61
2019-05-19T06:12:19.698Z,97782.13
2019-05-19T06:14:46.466Z,97780.65
2019-05-19T06:17:13.211Z,97784.53
2019-05-19T06:19:40.050Z,97789.48
2019-05-19T06:22:06.856Z,97788.29
2019-05-19T06:24:33.621Z,97794.67
2019-05-19T06:27:01.957Z,97796.31
2019-05-19T06:29:29.145Z,97789.20
2019-05-19T06:32:00.822Z,97797.41
2019-05-19T06:34:27.558Z,97793.11
2019-05-19T06:36:57.027Z,97826.09
2019-05-19T06:39:23.751Z,97797.73
2019-05-19T06:41:50.493Z,97825.61
2019-05-19T06:44:17.257Z,97802.42
2019-05-19T06:46:44.451Z,97805.86
2019-05-19T06:49:11.354Z,97808.13
2019-05-19T06:51:43.552Z,97805.30
2019-05-19T06:54:10.277Z,97808.27
2019-05-19T06:56:36.995Z,97808.90
2019-05-19T06:59:06.366Z,97818.22
2019-05-19T07:01:33.416Z,97806.17
2019-05-19T07:04:00.411Z,97806.39
2019-05-19T07:06:27.181Z,97812.48
2019-05-19T07:08:54.026Z,97812.39
2019-05-19T07:11:20.763Z,97812.91
2019-05-19T07:13:47.505Z,97809.92
2019-05-19T07:16:14.541Z,97811.42
2019-05-19T07:18:42.915Z,97814.35
2019-05-19T07:21:09.676Z,97814.81
2019-05-19T07:23:36.523Z,97813.03
2019-05-19T07:26:03.274Z,97807.25
2019-05-19T07:28:30.018Z,97769.16
2019-05-19T07:30:57.157Z,97808.13
2019-05-19T07:33:23.883Z,97804.97
2019-05-19T07:35:50.603Z,97798.57
2019-05-19T07:38:17.320Z,97807.47
2019-05-19T07:40:44.086Z,97832.89
2019-05-19T07:43:12.583Z,97819.02
2019-05-19T07:45:39.711Z,97805.72
2019-05-19T07:48:06.465Z,97807.50
2019-05-19T07:50:33.166Z,97797.16
2019-05-19T07:52:59.954Z,97803.84
2019-05-19T07:55:26.972Z,97793.03
2019-05-19T07:57:53.817Z,97801.06
2019-05-19T08:00:20.883Z,97803.56
2019-05-19T08:02:47.626Z,97798.57
2019-05-19T08:05:14.375Z,97800.43
2019-05-19T08:07:43.538Z,97805.09
2019-05-19T08:10:10.295Z,97808.59
2019-05-19T08:12:37.371Z,97803.81
2019-05-19T08:15:04.420Z,97798.06
2019-05-19T08:17:33.181Z,97807.63
2019-05-19T08:20:00.636Z,97798.64
2019-05-19T08:22:27.392Z,97809.14
2019-05-19T08:24:54.182Z,97816.91
2019-05-19T08:27:20.950Z,97800.70
2019-05-19T08:29:47.761Z,97800.09
2019-05-19T08:32:14.594Z,97802.80
2019-05-19T08:34:41.529Z,97804.22
2019-05-19T08:37:08.305Z,97804.80
2019-05-19T08:39:35.084Z,97799.41
2019-05-19T08:42:01.792Z,97798.41
2019-05-19T08:44:28.548Z,97796.23
2019-05-19T08:46:55.404Z,97793.39
2019-05-19T08:49:25.454Z,97794.81
2019-05-19T08:51:52.895Z,97819.69
2019-05-19T08:54:19.653Z,97805.59
2019-05-19T08:56:46.863Z,97796.33
2019-05-19T08:59:13.646Z,97795.88
2019-05-19T09:01:41.576Z,97794.17
2019-05-19T09:04:08.281Z,97795.80
2019-05-19T09:06:35.637Z,97791.52
2019-05-19T09:09:03.985Z,97792.86
2019-05-19T09:11:30.795Z,97787.91
2019-05-19T09:13:57.496Z,97789.30
2019-05-19T09:16:24.223Z,97795.35
2019-05-19T09:18:50.953Z,97792.26
2019-05-19T09:21:17.689Z,97786.05
2019-05-19T09:23:47.339Z,97790.42
2019-05-19T09:26:14.061Z,97794.99
2019-05-19T09:28:40.797Z,97789.30
2019-05-19T09:31:08.223Z,97789.61
2019-05-19T09:33:35.021Z,97780.19
2019-05-19T09:36:01.754Z,97779.77
2019-05-19T09:38:28.493Z,97784.33
2019-05-19T09:40:55.766Z,97790.25
2019-05-19T09:43:22.622Z,97789.16
2019-05-19T09:45:51.825Z,97788.56
2019-05-19T09:48:18.593Z,97781.72
2019-05-19T09:50:45.471Z,97781.28
2019-05-19T09:53:12.206Z,97782.20
2019-05-19T09:55:38.955Z,97783.97
2019-05-19T09:58:06.131Z,97784.31
2019-05-19T10:00:32.893Z,97779.42
2019-05-19T10:02:59.665Z,97780.76
2019-05-19T10:05:26.416Z,97780.77
2019-05-19T10:07:53.284Z,97777.31
2019-05-19T10:11:00.101Z,97781.90
2019-05-19T10:13:26.973Z,97776.87
2019-05-19T10:15:53.723Z,97793.20
2019-05-19T10:18:20.669Z,97786.17
2019-05-19T10:20:50.308Z,97775.98
2019-05-19T10:23:16.821Z,97772.75
2019-05-19T10:25:45.807Z,97773.86
2019-05-19T10:28:12.558Z,97768.30
2019-05-19T10:30:39.296Z,97771.96
2019-05-19T10:33:06.153Z,97771.05
2019-05-19T10:35:33.050Z,97767.17
2019-05-19T10:37:59.811Z,97762.43
2019-05-19T10:40:26.574Z,97756.02
2019-05-19T10:42:53.299Z,97770.20
2019-05-19T10:45:20.066Z,97764.30
2019-05-19T10:47:48.835Z,97753.25
2019-05-19T10:50:15.599Z,97760.72
2019-05-19T10:52:42.304Z,97759.20
2019-05-19T10:55:11.823Z,97758.95
2019-05-19T10:57:38.526Z,97757.97
2019-05-19T11:00:05.297Z,97754.94
2019-05-19T11:02:32.034Z,97757.63
2019-05-19T11:04:58.777Z,97755.60
2019-05-19T11:07:25.511Z,97758.53
2019-05-19T11:09:52.301Z,97748.24
2019-05-19T11:12:20.490Z,97759.16
2019-05-19T11:14:47.271Z,97755.27
2019-05-19T11:17:14.077Z,97778.31
2019-05-19T11:19:40.841Z,97755.30
2019-05-19T11:22:07.581Z,97760.81
2019-05-19T11:24:34.436Z,97758.77
2019-05-19T11:27:01.180Z,97754.89
2019-05-19T11:29:27.927Z,97748.47
2019-05-19T11:31:54.708Z,97748.95
2019-05-19T11:34:21.482Z,97748.11
2019-05-19T11:36:48.371Z,97746.91
2019-05-19T11:39:15.525Z,97744.80
2019-05-19T11:41:42.471Z,97744.00
2019-05-19T11:44:09.179Z,97750.42
2019-05-19T11:46:35.928Z,97742.92
2019-05-19T11:49:03.099Z,97740.16
2019-05-19T11:51:30.279Z,97738.99
2019-05-19T11:53:57.262Z,97744.28
2019-05-19T11:56:24.013Z,97745.66
2019-05-19T11:58:50.790Z,97734.16
2019-05-19T12:01:17.725Z,97741.72
2019-05-19T12:03:44.948Z,97741.78
2019-05-19T12:06:12.043Z,97732.13
2019-05-19T12:08:38.808Z,97737.32
2019-05-19T12:11:05.983Z,97740.67
2019-05-19T12:13:34.961Z,97736.21
2019-05-19T12:16:01.372Z,97731.20
2019-05-19T12:18:28.075Z,97734.78
2019-05-19T12:20:54.807Z,97728.75
2019-05-19T12:23:22.180Z,97739.98
2019-05-19T12:25:49.937Z,97738.47
2019-05-19T12:28:16.669Z,97727.09
2019-05-19T12:30:46.400Z,97724.20
2019-05-19T12:33:14.994Z,97724.77
2019-05-19T12:35:41.790Z,97706.69
2019-05-19T12:38:08.524Z,97712.09
2019-05-19T12:40:35.242Z,97712.66
2019-05-19T12:43:01.993Z,97701.40
2019-05-19T12:45:29.597Z,97710.24
2019-05-19T12:47:56.525Z,97702.78
2019-05-19T12:50:23.284Z,97697.31
2019-05-19T12:52:50.539Z,97701.84
2019-05-19T12:55:17.674Z,97693.25
2019-05-19T12:57:44.490Z,97700.20
2019-05-19T13:00:11.925Z,97697.34
2019-05-19T13:02:38.667Z,97696.81
2019-05-19T13:05:06.477Z,97707.64
2019-05-19T13:07:33.366Z,97692.30
2019-05-19T13:10:00.105Z,97686.88
2019-05-19T13:12:27.381Z,97688.13
2019-05-19T13:14:54.116Z,97679.31
2019-05-19T13:17:21.510Z,97684.33
2019-05-19T13:19:48.581Z,97672.67
2019-05-19T13:22:15.348Z,97673.20
2019-05-19T13:24:42.347Z,97662.11
2019-05-19T13:27:09.312Z,97664.81
2019-05-19T13:29:36.082Z,97657.13
2019-05-19T13:32:02.824Z,97665.55
2019-05-19T13:34:29.524Z,97671.11
2019-05-19T13:36:56.298Z,97673.23
2019-05-19T13:39:23.418Z,97667.84
2019-05-19T13:41:50.167Z,97663.70
2019-05-19T13:44:16.854Z,97655.56
2019-05-19T13:46:43.827Z,97653.73
2019-05-19T13:49:10.548Z,97657.48
2019-05-19T13:51:37.438Z,97648.03
2019-05-19T13:54:04.206Z,97649.52
2019-05-19T13:56:30.954Z,97656.82
2019-05-19T13:58:57.672Z,97652.36
2019-05-19T14:01:28.453Z,97644.42
2019-05-19T14:03:53.088Z,97644.07
2019-05-19T14:06:19.850Z,97648.58
2019-05-19T14:08:48.857Z,97642.91
2019-05-19T14:11:15.929Z,97641.82
2019-05-19T14:13:42.732Z,97633.30
2019-05-19T14:16:10.468Z,97628.63
2019-05-19T14:18:37.586Z,97632.58
2019-05-19T14:21:04.377Z,97635.23
2019-05-19T14:23:31.220Z,97630.98
2019-05-19T14:25:57.980Z,97623.99
2019-05-19T14:28:24.713Z,97619.24
2019-05-19T14:30:51.593Z,97623.28
2019-05-19T14:33:18.773Z,97626.61
2019-05-19T14:35:45.510Z,97625.14
2019-05-19T14:38:12.478Z,97616.17
2019-05-19T14:40:39.450Z,97609.33
2019-05-19T14:43:06.222Z,97616.35
2019-05-19T14:45:33.185Z,97610.88
2019-05-19T14:48:00.065Z,97605.52
2019-05-19T14:50:29.516Z,97609.52
2019-05-19T14:52:56.486Z,97614.53
2019-05-19T14:55:23.366Z,97610.47
2019-05-19T14:57:50.187Z,97607.45
2019-05-19T15:00:17.014Z,97610.77
2019-05-19T15:02:43.742Z,97608.60
2019-05-19T15:05:11.678Z,97606.06
2019-05-19T15:07:38.449Z,97606.03
2019-05-19T15:10:05.995Z,97597.42
2019-05-19T15:12:32.686Z,97599.64
2019-05-19T15:14:59.529Z,97596.16
2019-05-19T15:17:26.263Z,97599.95
2019-05-19T15:19:53.103Z,97595.84
2019-05-19T15:22:19.911Z,97605.21
2019-05-19T15:24:46.672Z,97591.06
2019-05-19T15:27:13.774Z,97598.70
2019-05-19T15:29:40.510Z,97603.08
2019-05-19T15:32:07.528Z,97603.44
2019-05-19T15:34:34.255Z,97603.84
2019-05-19T15:37:01.127Z,97594.17
2019-05-19T15:39:28.236Z,97588.01
2019-05-19T15:41:55.328Z,97595.35
2019-05-19T15:44:22.159Z,97594.41
2019-05-19T15:46:49.178Z,97588.80
2019-05-19T15:49:16.214Z,97592.03
2019-05-19T15:51:59.108Z,97596.61
2019-05-19T15:54:11.877Z,97590.28
2019-05-19T15:56:38.739Z,97591.27
2019-05-19T15:59:05.619Z,97579.31
2019-05-19T16:01:32.541Z,97575.64
2019-05-19T16:03:59.302Z,97576.44
2019-05-19T16:06:26.230Z,97579.11
2019-05-19T16:08:54.654Z,97587.23
2019-05-19T16:11:21.387Z,97585.61
2019-05-19T16:13:48.123Z,97582.38
2019-05-19T16:16:14.975Z,97591.38
2019-05-19T16:18:41.757Z,97591.70
2019-05-19T16:21:08.679Z,97587.90
2019-05-19T16:23:35.439Z,97582.08
2019-05-19T16:26:02.195Z,97583.86
2019-05-19T16:28:31.074Z,97581.62
2019-05-19T16:30:57.736Z,97576.65
2019-05-19T16:33:24.502Z,97582.55
2019-05-19T16:35:51.242Z,97580.46
2019-05-19T16:38:17.991Z,97579.51
2019-05-19T16:40:44.776Z,97585.58
2019-05-19T16:43:11.571Z,97584.79
2019-05-19T16:45:38.820Z,97586.42
2019-05-19T16:48:05.682Z,97579.11
2019-05-19T16:50:32.554Z,97581.77
2019-05-19T16:52:59.351Z,97619.53
2019-05-19T16:55:28.483Z,97583.06
2019-05-19T16:57:55.259Z,97585.08
2019-05-19T17:00:22.647Z,97582.47
2019-05-19T17:02:49.417Z,97579.77
2019-05-19T17:05:16.761Z,97581.27
2019-05-19T17:07:43.495Z,97585.45
2019-05-19T17:10:10.396Z,97590.39
2019-05-19T17:12:37.577Z,97577.13
2019-05-19T17:15:04.738Z,97579.74
2019-05-19T17:17:31.870Z,97576.33
2019-05-19T17:19:58.631Z,97581.48
2019-05-19T17:22:25.389Z,97571.82
2019-05-19T17:24:52.499Z,97578.35
2019-05-19T17:27:19.250Z,97579.36
2019-05-19T17:29:46.356Z,97587.92
2019-05-19T17:32:13.093Z,97586.94
2019-05-19T17:34:39.941Z,97593.59
2019-05-19T17:37:06.688Z,97586.63
2019-05-19T17:39:33.433Z,97592.48
2019-05-19T17:42:00.268Z,97601.02
2019-05-19T17:44:27.521Z,97599.05
2019-05-19T17:46:54.321Z,97602.43
2019-05-19T17:49:21.058Z,97609.39
2019-05-19T17:51:47.886Z,97609.82
2019-05-19T17:54:14.666Z,97610.16
2019-05-19T17:56:41.506Z,97598.42
2019-05-19T17:59:16.151Z,97624.27
2019-05-19T18:01:36.997Z,97629.79
2019-05-19T18:04:03.839Z,97629.17
2019-05-19T18:06:30.676Z,97632.70
2019-05-19T18:08:57.791Z,97629.55
2019-05-19T18:11:24.861Z,97634.19
2019-05-19T18:13:51.585Z,97636.95
2019-05-19T18:16:18.344Z,97633.19
2019-05-19T18:18:45.324Z,97636.81
2019-05-19T18:21:12.145Z,97636.60
2019-05-19T18:23:38.898Z,97630.81
2019-05-19T18:26:07.301Z,97634.09
2019-05-19T18:28:34.315Z,97626.38
2019-05-19T18:31:01.060Z,97630.63
2019-05-19T18:33:30.014Z,97632.08
2019-05-19T18:35:56.709Z,97630.25
2019-05-19T18:38:23.491Z,97636.92
2019-05-19T18:40:50.242Z,97634.39
2019-05-19T18:43:16.987Z,97645.91
2019-05-19T18:45:43.732Z,97642.06
2019-05-19T18:48:10.597Z,97643.73
2019-05-19T18:50:37.348Z,97649.78
2019-05-19T18:53:04.310Z,97642.29
2019-05-19T18:55:31.637Z,97642.75
2019-05-19T18:57:58.428Z,97647.08
2019-05-19T19:00:33.052Z,97643.48
2019-05-19T19:02:59.858Z,97643.16
2019-05-19T19:05:26.602Z,97645.69
2019-05-19T19:07:54.423Z,97646.03
2019-05-19T19:10:21.302Z,97647.32
2019-05-19T19:12:48.125Z,97651.90
2019-05-19T19:15:14.861Z,97657.41
2019-05-19T19:17:49.300Z,97665.53
2019-05-19T19:20:16.169Z,97664.19
2019-05-19T19:22:42.919Z,97668.66
2019-05-19T19:25:11.284Z,97669.41
2019-05-19T19:27:38.377Z,97674.58
2019-05-19T19:30:06.126Z,97683.24
2019-05-19T19:32:33.011Z,97683.03
2019-05-19T19:34:59.728Z,97681.48
2019-05-19T19:37:26.975Z,97702.16
2019-05-19T19:40:02.118Z,97699.72
2019-05-19T19:42:28.919Z,97705.28
2019-05-19T19:44:55.924Z,97713.97
2019-05-19T19:47:22.803Z,97712.19
2019-05-19T19:49:49.509Z,97714.05
2019-05-19T19:52:16.341Z,97726.70
2019-05-19T19:54:47.124Z,97728.56
2019-05-19T19:57:13.878Z,97718.54
2019-05-19T19:59:40.920Z,97722.23
2019-05-19T20:02:07.673Z,97718.59
2019-05-19T20:04:34.400Z,97717.98
2019-05-19T20:07:01.271Z,97725.85
2019-05-19T20:09:28.010Z,97736.27
2019-05-19T20:11:54.739Z,97730.95
2019-05-19T20:14:21.498Z,97739.13
2019-05-19T20:16:48.641Z,97743.19
2019-05-19T20:19:15.399Z,97743.80
2019-05-19T20:21:42.529Z,97744.87
2019-05-19T20:24:09.371Z,97740.75
2019-05-19T20:26:36.109Z,97738.98
2019-05-19T20:29:02.854Z,97742.47
2019-05-19T20:31:31.470Z,97740.40
2019-05-19T20:33:58.411Z,97745.43
2019-05-19T20:36:25.194Z,97752.47
2019-05-19T20:38:52.369Z,97746.30
2019-05-19T20:41:19.541Z,97752.20
2019-05-19T20:43:46.874Z,97746.70
2019-05-19T20:46:13.617Z,97749.36
2019-05-19T20:48:40.474Z,97742.27
2019-05-19T20:51:07.295Z,97736.00
2019-05-19T20:53:34.157Z,97732.02
2019-05-19T20:56:00.893Z,97732.02
2019-05-19T20:58:27.659Z,97731.58
2019-05-19T21:00:54.432Z,97729.12
2019-05-19T21:03:21.207Z,97719.58
2019-05-19T21:05:47.936Z,97730.34
2019-05-19T21:08:14.755Z,97725.98
2019-05-19T21:10:41.807Z,97736.47
2019-05-19T21:13:08.542Z,97734.46
2019-05-19T21:15:35.302Z,97733.03
2019-05-19T21:18:03.255Z,97726.25
2019-05-19T21:20:30.056Z,97732.38
2019-05-19T21:22:56.813Z,97721.70
2019-05-19T21:25:23.574Z,97722.03
2019-05-19T21:27:50.343Z,97718.03
2019-05-19T21:30:17.851Z,97720.49
2019-05-19T21:32:44.644Z,97715.23
2019-05-19T21:35:11.577Z,97721.50
2019-05-19T21:37:38.391Z,97716.15
2019-05-19T21:40:06.135Z,97716.50
2019-05-19T21:42:32.975Z,97712.70
2019-05-19T21:44:59.721Z,97712.72
2019-05-19T21:47:26.569Z,97702.02
2019-05-19T21:49:53.702Z,97709.61
2019-05-19T21:52:21.148Z,97709.38
2019-05-19T21:54:48.034Z,97744.26
2019-05-19T21:57:15.552Z,97719.16
2019-05-19T21:59:42.353Z,97724.59
2019-05-19T22:02:09.103Z,97722.13
2019-05-19T22:04:36.251Z,97726.50
2019-05-19T22:07:10.307Z,97731.27
2019-05-19T22:09:38.270Z,97731.85
2019-05-19T22:12:06.337Z,97734.30
2019-05-19T22:14:33.239Z,97739.61
2019-05-19T22:16:59.998Z,97743.91
2019-05-19T22:19:26.841Z,97737.64
2019-05-19T22:21:54.233Z,97740.70
2019-05-19T22:24:21.013Z,97740.34
2019-05-19T22:26:47.752Z,97737.66
2019-05-19T22:29:14.529Z,97734.35
2019-05-19T22:31:41.368Z,97737.21
2019-05-19T22:34:08.830Z,97737.95
2019-05-19T22:36:35.620Z,97728.30
2019-05-19T22:39:03.980Z,97728.61
2019-05-19T22:41:30.895Z,97722.73
2019-05-19T22:43:57.624Z,97718.80
2019-05-19T22:46:24.375Z,97730.56
2019-05-19T22:48:51.435Z,97717.75
2019-05-19T22:51:18.199Z,97722.02
2019-05-19T22:53:45.044Z,97714.91
2019-05-19T22:56:11.857Z,97711.59
2019-05-19T22:58:41.430Z,97713.56
2019-05-19T23:01:07.329Z,97708.21
2019-05-19T23:03:34.183Z,97706.73
2019-05-19T23:06:01.010Z,97698.74
2019-05-19T23:08:30.948Z,97702.09
2019-05-19T23:10:57.722Z,97702.73
2019-05-19T23:13:24.451Z,97695.77
2019-05-19T23:15:51.344Z,97706.62
2019-05-19T23:18:18.349Z,97698.06
2019-05-19T23:20:45.121Z,97693.41
2019-05-19T23:23:12.155Z,97696.19
2019-05-19T23:25:38.948Z,97706.69
2019-05-19T23:28:05.708Z,97711.23
2019-05-19T23:30:32.448Z,97702.59
2019-05-19T23:32:59.192Z,97705.97
2019-05-19T23:35:26.542Z,97715.34
2019-05-19T23:37:53.556Z,97704.67
2019-05-19T23:40:20.308Z,97702.25
2019-05-19T23:42:47.047Z,97715.23
2019-05-19T23:45:17.062Z,97721.09
2019-05-19T23:47:43.819Z,97729.69
2019-05-19T23:50:11.518Z,97730.14
2019-05-19T23:52:38.298Z,97722.70
2019-05-19T23:55:05.254Z,97715.13
2019-05-19T23:57:34.167Z,97716.23
